Terminal Aerodrome Forecast
Issued by NWS

Current Version | Previous Version | Text Only | Print | Product List | Glossary On
Versions: 1 2 3 4 5 6 7 8 9 10 11 12 13 14 15
000
FTUS43 KGRB 261731
TAFAUW
TAF
KAUW 261731Z 2618/2718 25010G17KT P6SM BKN200
     FM262100 27009KT P6SM BKN120
     FM270000 33009KT P6SM BKN060
     FM270200 34004KT P6SM SCT200
     FM271200 18004KT P6SM BKN070
     FM271600 25006KT 6SM -SHRA OVC030=

USA.gov is the U.S. government's official web portal to all federal, state and local government web resources and services.